EZY9006 EGMC-EGGW
Flight info
| Callsign | EZY9006 |
|---|---|
| Flight time | 0h 16m |
| Altitude | 10000 |
| Route | EVNAS/N0282F090 DCT ABBOT/N0308F100 |
| Aircraft | A320/M-SDE3FGHIRWY/LB1 |
Departure
| Time | 2026-04-15 16:24 |
|---|---|
| Airport | London Southend Airport (EGMC) |
Arrival
| Time | 2026-04-15 16:41 |
|---|---|
| Airport | London Luton Airport (EGGW) |
| Time | Latitude | Longitude | Altitude | Speed | Heading |
|---|---|---|---|---|---|
| 2026-04-15 15:56 | 51.56965 | 0.70285 | 54 ft | 0 kts | 94° |
| 2026-04-15 16:17 | 51.56966 | 0.70277 | 54 ft | 4 kts | 94° |
| 2026-04-15 16:17 | 51.56967 | 0.70237 | 54 ft | 4 kts | 84° |
| 2026-04-15 16:17 | 51.56958 | 0.70203 | 54 ft | 4 kts | 29° |
| 2026-04-15 16:18 | 51.56940 | 0.70192 | 54 ft | 1 kts | 9° |
| 2026-04-15 16:18 | 51.56936 | 0.70191 | 54 ft | 0 kts | 9° |
| 2026-04-15 16:20 | 51.56941 | 0.70193 | 54 ft | 2 kts | 9° |
| 2026-04-15 16:20 | 51.56977 | 0.70202 | 54 ft | 9 kts | 9° |
| 2026-04-15 16:21 | 51.57061 | 0.70213 | 54 ft | 13 kts | 4° |
| 2026-04-15 16:21 | 51.57167 | 0.70223 | 54 ft | 13 kts | 3° |
| 2026-04-15 16:21 | 51.57248 | 0.70235 | 54 ft | 11 kts | 15° |
| 2026-04-15 16:21 | 51.57314 | 0.70347 | 53 ft | 17 kts | 54° |
| 2026-04-15 16:22 | 51.57381 | 0.70443 | 53 ft | 12 kts | 13° |
| 2026-04-15 16:22 | 51.57403 | 0.70450 | 54 ft | 0 kts | 12° |
| 2026-04-15 16:23 | 51.57404 | 0.70451 | 54 ft | 2 kts | 12° |
| 2026-04-15 16:23 | 51.57442 | 0.70463 | 52 ft | 9 kts | 12° |
| 2026-04-15 16:23 | 51.57514 | 0.70483 | 52 ft | 9 kts | 1° |
| 2026-04-15 16:24 | 51.57543 | 0.70444 | 54 ft | 4 kts | 267° |
| 2026-04-15 16:24 | 51.57518 | 0.70387 | 54 ft | 15 kts | 232° |
| 2026-04-15 16:24 | 51.57256 | 0.69805 | 55 ft | 120 kts | 234° |
| 2026-04-15 16:24 | 51.56685 | 0.68550 | 917 ft | 151 kts | 232° |
| 2026-04-15 16:25 | 51.56040 | 0.67120 | 1923 ft | 168 kts | 231° |
| 2026-04-15 16:25 | 51.55263 | 0.65415 | 2365 ft | 211 kts | 232° |
| 2026-04-15 16:25 | 51.54350 | 0.63461 | 2618 ft | 223 kts | 232° |
| 2026-04-15 16:25 | 51.53641 | 0.61233 | 2875 ft | 229 kts | 253° |
| 2026-04-15 16:26 | 51.53691 | 0.58634 | 3223 ft | 244 kts | 281° |
| 2026-04-15 16:26 | 51.54651 | 0.56299 | 3604 ft | 265 kts | 313° |
| 2026-04-15 16:26 | 51.56213 | 0.54637 | 3995 ft | 271 kts | 321° |
| 2026-04-15 16:26 | 51.57934 | 0.53300 | 4398 ft | 282 kts | 339° |
| 2026-04-15 16:27 | 51.59926 | 0.53095 | 4954 ft | 293 kts | 0° |
| 2026-04-15 16:27 | 51.61960 | 0.53395 | 5355 ft | 294 kts | 1° |
| 2026-04-15 16:27 | 51.64005 | 0.53734 | 5739 ft | 296 kts | 1° |
| 2026-04-15 16:27 | 51.66054 | 0.54083 | 6126 ft | 297 kts | 1° |
| 2026-04-15 16:28 | 51.68118 | 0.54430 | 6511 ft | 298 kts | 1° |
| 2026-04-15 16:28 | 51.70074 | 0.54768 | 6850 ft | 269 kts | 0° |
| 2026-04-15 16:28 | 51.71928 | 0.54875 | 7022 ft | 262 kts | 343° |
| 2026-04-15 16:28 | 51.73533 | 0.53787 | 7046 ft | 243 kts | 312° |
| 2026-04-15 16:29 | 51.74697 | 0.51893 | 7039 ft | 237 kts | 302° |
| 2026-04-15 16:29 | 51.75765 | 0.49875 | 7027 ft | 236 kts | 301° |
| 2026-04-15 16:29 | 51.76822 | 0.47844 | 7046 ft | 236 kts | 301° |
| 2026-04-15 16:29 | 51.77882 | 0.45823 | 7043 ft | 236 kts | 301° |
| 2026-04-15 16:30 | 51.78943 | 0.43809 | 7023 ft | 235 kts | 301° |
| 2026-04-15 16:30 | 51.80005 | 0.41798 | 7036 ft | 235 kts | 301° |
| 2026-04-15 16:30 | 51.81067 | 0.39788 | 7047 ft | 235 kts | 301° |
| 2026-04-15 16:30 | 51.82138 | 0.37773 | 7032 ft | 238 kts | 301° |
| 2026-04-15 16:31 | 51.83220 | 0.35743 | 7031 ft | 238 kts | 301° |
| 2026-04-15 16:31 | 51.84304 | 0.33712 | 7029 ft | 239 kts | 301° |
| 2026-04-15 16:31 | 51.85391 | 0.31668 | 6807 ft | 238 kts | 301° |
| 2026-04-15 16:31 | 51.86465 | 0.29646 | 6635 ft | 237 kts | 301° |
| 2026-04-15 16:32 | 51.87534 | 0.27627 | 6463 ft | 236 kts | 301° |
| 2026-04-15 16:32 | 51.88596 | 0.25615 | 6286 ft | 235 kts | 301° |
| 2026-04-15 16:32 | 51.89496 | 0.23477 | 6104 ft | 226 kts | 289° |
| 2026-04-15 16:32 | 51.90185 | 0.21201 | 5922 ft | 224 kts | 287° |
| 2026-04-15 16:33 | 51.90838 | 0.18946 | 5749 ft | 224 kts | 286° |
| 2026-04-15 16:33 | 51.91495 | 0.16659 | 5566 ft | 224 kts | 286° |
| 2026-04-15 16:33 | 51.92151 | 0.14372 | 5387 ft | 224 kts | 286° |
| 2026-04-15 16:33 | 51.92807 | 0.12093 | 5210 ft | 223 kts | 286° |
| 2026-04-15 16:34 | 51.93461 | 0.09822 | 5034 ft | 222 kts | 286° |
| 2026-04-15 16:34 | 51.94115 | 0.07551 | 4854 ft | 222 kts | 286° |
| 2026-04-15 16:34 | 51.94608 | 0.05239 | 4673 ft | 210 kts | 265° |
| 2026-04-15 16:34 | 51.94305 | 0.03015 | 4495 ft | 203 kts | 247° |
| 2026-04-15 16:35 | 51.93897 | 0.00818 | 4353 ft | 204 kts | 249° |
| 2026-04-15 16:35 | 51.93512 | -0.01429 | 4222 ft | 204 kts | 250° |
| 2026-04-15 16:35 | 51.93152 | -0.03575 | 4086 ft | 190 kts | 249° |
| 2026-04-15 16:35 | 51.92813 | -0.05583 | 3963 ft | 179 kts | 248° |
| 2026-04-15 16:36 | 51.92491 | -0.07481 | 3835 ft | 171 kts | 248° |
| 2026-04-15 16:36 | 51.92192 | -0.09247 | 3783 ft | 154 kts | 248° |
| 2026-04-15 16:36 | 51.91919 | -0.10856 | 3625 ft | 143 kts | 248° |
| 2026-04-15 16:36 | 51.91655 | -0.12394 | 3461 ft | 141 kts | 248° |
| 2026-04-15 16:37 | 51.91483 | -0.13403 | 3343 ft | 140 kts | 248° |
| 2026-04-15 16:37 | 51.91223 | -0.14924 | 3165 ft | 140 kts | 247° |
| 2026-04-15 16:37 | 51.90959 | -0.16467 | 2970 ft | 140 kts | 247° |
| 2026-04-15 16:37 | 51.90703 | -0.17969 | 2791 ft | 140 kts | 248° |
| 2026-04-15 16:38 | 51.90442 | -0.19495 | 2587 ft | 141 kts | 248° |
| 2026-04-15 16:38 | 51.90182 | -0.21014 | 2399 ft | 140 kts | 247° |
| 2026-04-15 16:38 | 51.89925 | -0.22520 | 2209 ft | 136 kts | 247° |
| 2026-04-15 16:38 | 51.89684 | -0.23935 | 2031 ft | 125 kts | 246° |
| 2026-04-15 16:39 | 51.89456 | -0.25268 | 1863 ft | 121 kts | 245° |
| 2026-04-15 16:39 | 51.89233 | -0.26565 | 1711 ft | 118 kts | 245° |
| 2026-04-15 16:39 | 51.89012 | -0.27846 | 1549 ft | 118 kts | 246° |
| 2026-04-15 16:39 | 51.88793 | -0.29123 | 1375 ft | 117 kts | 245° |
| 2026-04-15 16:40 | 51.88574 | -0.30391 | 1212 ft | 118 kts | 246° |
| 2026-04-15 16:40 | 51.88352 | -0.31681 | 1036 ft | 118 kts | 244° |
| 2026-04-15 16:40 | 51.88132 | -0.32956 | 876 ft | 119 kts | 248° |
| 2026-04-15 16:40 | 51.87906 | -0.34267 | 698 ft | 119 kts | 247° |
| 2026-04-15 16:41 | 51.87688 | -0.35540 | 544 ft | 117 kts | 246° |
| 2026-04-15 16:41 | 51.87499 | -0.36628 | 545 ft | 80 kts | 254° |
| 2026-04-15 16:41 | 51.87389 | -0.37271 | 537 ft | 48 kts | 254° |
| 2026-04-15 16:41 | 51.87329 | -0.37621 | 536 ft | 17 kts | 255° |
| 2026-04-15 16:42 | 51.87357 | -0.37693 | 536 ft | 8 kts | 343° |
| 2026-04-15 16:42 | 51.87406 | -0.37668 | 536 ft | 8 kts | 43° |
| 2026-04-15 16:42 | 51.87445 | -0.37603 | 536 ft | 8 kts | 45° |
| 2026-04-15 16:42 | 51.87487 | -0.37532 | 536 ft | 10 kts | 46° |
| 2026-04-15 16:43 | 51.87539 | -0.37460 | 537 ft | 10 kts | 28° |
| 2026-04-15 16:43 | 51.87606 | -0.37452 | 537 ft | 10 kts | 355° |
| 2026-04-15 16:43 | 51.87677 | -0.37501 | 534 ft | 13 kts | 319° |
| 2026-04-15 16:43 | 51.87724 | -0.37644 | 534 ft | 17 kts | 294° |
| 2026-04-15 16:44 | 51.87782 | -0.37851 | 534 ft | 22 kts | 296° |
| 2026-04-15 16:44 | 51.87864 | -0.38001 | 534 ft | 12 kts | 338° |
| 2026-04-15 16:44 | 51.87951 | -0.38007 | 534 ft | 15 kts | 15° |
| 2026-04-15 16:44 | 51.88038 | -0.37913 | 534 ft | 14 kts | 37° |
| 2026-04-15 16:45 | 51.88105 | -0.37829 | 534 ft | 7 kts | 39° |
| 2026-04-15 16:45 | 51.88107 | -0.37794 | 534 ft | 4 kts | 124° |
| 2026-04-15 16:45 | 51.88089 | -0.37763 | 534 ft | 2 kts | 128° |
| 2026-04-15 16:45 | 51.88082 | -0.37750 | 534 ft | 0 kts | 128° |